Time;durP1;ratioP1;P1;durP2;ratioP2;P2;SDS_P1;SDS_P2;PMS_P1;PMS_P2;Temp;Humidity;BMP_temperature;BMP_pressure;BME280_temperature;BME280_humidity;BME280_pressure;Samples;Min_cycle;Max_cycle;Signal;HPM_P1;HPM_P2
2022/02/03 00:02:02;;;;;;;42.25;20.92;;;;;;;;;;5116565;28;20190;-62
2022/02/03 00:04:34;;;;;;;49.60;21.25;;;;;;;;;;5115993;28;20259;-62
2022/02/03 00:07:07;;;;;;;42.30;19.73;;;;;;;;;;5116287;28;20608;-62
2022/02/03 00:10:07;;;;;;;43.03;20.63;;;;;;;;;;5115657;28;20186;-62
2022/02/03 00:26:40;;;;;;;47.50;23.08;;;;;;;;;;5072574;28;20572;-62
2022/02/03 00:29:17;;;;;;;52.22;24.73;;;;;;;;;;5106123;28;20250;-62
2022/02/03 00:31:59;;;;;;;45.20;23.50;;;;;;;;;;5115826;28;20177;-62
2022/02/03 00:34:37;;;;;;;57.33;26.60;;;;;;;;;;5115593;28;20286;-62
2022/02/03 00:37:12;;;;;;;63.47;26.95;;;;;;;;;;5115984;28;20242;-62
2022/02/03 00:50:48;;;;;;;55.45;27.23;;;;;;;;;;5115036;28;20198;-62
2022/02/03 00:53:15;;;;;;;58.95;25.88;;;;;;;;;;5114844;28;20192;-63
2022/02/03 00:55:48;;;;;;;57.22;28.35;;;;;;;;;;5114714;28;20239;-62
2022/02/03 00:58:16;;;;;;;63.88;26.90;;;;;;;;;;5114777;28;20267;-62
2022/02/03 01:00:44;;;;;;;72.32;30.55;;;;;;;;;;5114833;28;20292;-62
2022/02/03 01:03:14;;;;;;;64.97;28.08;;;;;;;;;;5114794;28;20189;-62
2022/02/03 01:05:42;;;;;;;57.87;27.90;;;;;;;;;;5115054;28;20319;-62
2022/02/03 01:08:17;;;;;;;84.40;32.00;;;;;;;;;;5115131;28;20474;-62
2022/02/03 01:10:51;;;;;;;63.33;30.05;;;;;;;;;;5114477;28;20183;-62
2022/02/03 01:13:34;;;;;;;58.45;27.80;;;;;;;;;;5114440;28;20605;-62
2022/02/03 01:16:09;;;;;;;61.92;27.42;;;;;;;;;;5115035;28;20220;-62
2022/02/03 01:19:05;;;;;;;74.05;30.02;;;;;;;;;;5114362;28;20212;-62
2022/02/03 01:43:54;;;;;;;57.35;28.75;;;;;;;;;;5114117;28;20183;-63
2022/02/03 01:46:41;;;;;;;65.20;27.60;;;;;;;;;;5114427;28;20264;-63
2022/02/03 01:49:14;;;;;;;60.80;28.27;;;;;;;;;;5114168;28;20434;-62
2022/02/03 01:51:54;;;;;;;62.05;28.73;;;;;;;;;;5114907;28;20427;-62
2022/02/03 01:54:26;;;;;;;60.35;28.60;;;;;;;;;;5114495;28;20192;-62
2022/02/03 01:57:02;;;;;;;63.33;28.87;;;;;;;;;;5114222;28;20280;-63
2022/02/03 01:59:32;;;;;;;56.95;26.05;;;;;;;;;;5114624;28;20425;-63
2022/02/03 02:02:00;;;;;;;59.75;28.30;;;;;;;;;;5114291;28;20277;-62
2022/02/03 02:04:48;;;;;;;65.50;27.98;;;;;;;;;;5113663;28;20310;-63
2022/02/03 02:07:20;;;;;;;52.70;28.20;;;;;;;;;;5107322;28;20221;-62
2022/02/03 02:10:03;;;;;;;60.42;27.52;;;;;;;;;;5113920;28;20236;-63
2022/02/03 02:12:43;;;;;;;67.03;29.83;;;;;;;;;;5114286;28;20203;-63
2022/02/03 02:15:47;;;;;;;64.53;30.53;;;;;;;;;;5113572;28;20181;-62
2022/02/03 02:18:35;;;;;;;71.60;30.20;;;;;;;;;;5113770;28;20947;-62
2022/02/03 02:43:18;;;;;;;62.10;27.23;;;;;;;;;;5099638;28;20618;-62
2022/02/03 02:45:48;;;;;;;63.70;29.83;;;;;;;;;;5117269;28;20462;-62
2022/02/03 02:48:24;;;;;;;75.88;30.00;;;;;;;;;;5117202;28;20197;-62
2022/02/03 02:50:58;;;;;;;51.08;26.10;;;;;;;;;;5117917;28;20181;-63
2022/02/03 02:53:37;;;;;;;62.50;26.55;;;;;;;;;;5117576;28;20242;-62
2022/02/03 02:56:17;;;;;;;60.17;28.10;;;;;;;;;;5117127;28;20185;-62
2022/02/03 03:02:08;;;;;;;67.75;27.52;;;;;;;;;;5115625;28;20521;-62
2022/02/03 03:32:39;;;;;;;90.53;36.30;;;;;;;;;;5091032;28;20552;-62
2022/02/03 03:35:16;;;;;;;95.97;39.42;;;;;;;;;;5090682;28;20245;-62
2022/02/03 03:37:46;;;;;;;86.85;38.42;;;;;;;;;;5091225;28;20240;-62
2022/02/03 03:40:14;;;;;;;81.63;37.80;;;;;;;;;;5091254;28;20306;-62
2022/02/03 03:42:45;;;;;;;87.05;36.35;;;;;;;;;;5090606;28;20435;-62
2022/02/03 03:45:13;;;;;;;91.20;35.72;;;;;;;;;;5091346;28;20200;-63
2022/02/03 03:47:43;;;;;;;97.18;41.00;;;;;;;;;;5090554;28;20290;-62
2022/02/03 03:50:12;;;;;;;92.22;37.10;;;;;;;;;;5091225;28;20197;-62
2022/02/03 03:52:45;;;;;;;88.35;38.35;;;;;;;;;;5091086;28;20275;-62
2022/02/03 03:55:21;;;;;;;93.05;41.05;;;;;;;;;;5090466;28;20643;-63
2022/02/03 03:58:05;;;;;;;82.40;37.00;;;;;;;;;;5091259;28;20188;-62
2022/02/03 04:00:59;;;;;;;81.03;38.30;;;;;;;;;;5090412;28;20194;-63
2022/02/03 04:38:03;;;;;;;68.43;33.97;;;;;;;;;;5071734;28;20428;-63
2022/02/03 04:41:00;;;;;;;62.03;36.40;;;;;;;;;;5089566;28;20451;-63
2022/02/03 05:01:26;;;;;;;72.30;37.80;;;;;;;;;;5076207;28;20785;-63
2022/02/03 05:04:07;;;;;;;67.87;35.17;;;;;;;;;;5076217;28;20442;-63
2022/02/03 05:07:04;;;;;;;58.17;32.30;;;;;;;;;;5075934;28;20921;-63
2022/02/03 05:09:51;;;;;;;71.60;34.63;;;;;;;;;;5075511;28;20498;-63
2022/02/03 05:12:34;;;;;;;72.03;36.50;;;;;;;;;;5075842;28;20928;-63
2022/02/03 05:21:56;;;;;;;65.32;34.45;;;;;;;;;;5064895;28;20435;-62
2022/02/03 05:24:45;;;;;;;64.63;31.67;;;;;;;;;;5095504;28;20200;-63
2022/02/03 05:44:40;;;;;;;56.57;31.23;;;;;;;;;;5094267;28;20564;-63
2022/02/03 05:47:22;;;;;;;68.68;34.58;;;;;;;;;;5096172;28;20424;-63
2022/02/03 05:50:07;;;;;;;67.30;31.90;;;;;;;;;;5095666;28;20193;-63
2022/02/03 06:00:45;;;;;;;61.30;30.97;;;;;;;;;;5088618;28;20659;-63
2022/02/03 06:07:18;;;;;;;50.33;28.67;;;;;;;;;;5094357;28;20189;-63
2022/02/03 06:15:25;;;;;;;50.35;30.75;;;;;;;;;;5089212;28;20442;-63
2022/02/03 06:23:43;;;;;;;49.75;28.55;;;;;;;;;;5090792;28;20181;-62
2022/02/03 06:29:01;;;;;;;49.55;26.92;;;;;;;;;;5090839;28;20180;-63
2022/02/03 06:31:28;;;;;;;46.70;26.08;;;;;;;;;;5090413;28;20217;-63
2022/02/03 06:33:55;;;;;;;46.58;26.67;;;;;;;;;;5090457;28;20193;-63
2022/02/03 06:36:23;;;;;;;46.07;24.10;;;;;;;;;;5090480;28;20247;-64
2022/02/03 06:38:50;;;;;;;41.80;23.65;;;;;;;;;;5090694;28;20447;-63
2022/02/03 06:41:17;;;;;;;45.08;24.33;;;;;;;;;;5090848;28;20205;-64
2022/02/03 06:43:45;;;;;;;44.42;24.67;;;;;;;;;;5090877;28;20589;-63
2022/02/03 06:46:14;;;;;;;47.55;23.17;;;;;;;;;;5090725;28;20192;-63
2022/02/03 06:48:47;;;;;;;42.00;23.63;;;;;;;;;;5090644;28;20528;-64
2022/02/03 06:51:21;;;;;;;45.33;24.05;;;;;;;;;;5090606;28;20212;-63
2022/02/03 06:53:53;;;;;;;51.00;25.85;;;;;;;;;;5090283;28;20280;-62
2022/02/03 06:56:31;;;;;;;45.95;23.95;;;;;;;;;;5090194;28;20192;-64
2022/02/03 06:59:01;;;;;;;43.13;23.45;;;;;;;;;;5090186;28;20195;-63
2022/02/03 07:01:35;;;;;;;40.03;23.80;;;;;;;;;;5090068;28;20202;-63
2022/02/03 07:04:06;;;;;;;40.47;23.23;;;;;;;;;;5090382;28;20213;-63
2022/02/03 07:06:33;;;;;;;36.92;21.90;;;;;;;;;;5089964;28;20189;-64
2022/02/03 07:09:06;;;;;;;37.03;21.60;;;;;;;;;;5090601;28;20287;-63
2022/02/03 07:11:34;;;;;;;38.30;22.17;;;;;;;;;;5090310;28;20690;-64
2022/02/03 07:14:01;;;;;;;39.53;22.42;;;;;;;;;;5090144;28;20194;-63
2022/02/03 07:16:33;;;;;;;47.50;22.85;;;;;;;;;;5090220;28;20241;-63
2022/02/03 07:19:01;;;;;;;35.63;21.80;;;;;;;;;;5090318;28;20200;-63
2022/02/03 07:21:28;;;;;;;33.63;22.33;;;;;;;;;;5089463;28;20448;-64
2022/02/03 07:23:55;;;;;;;30.48;19.40;;;;;;;;;;5076657;28;20205;-64
2022/02/03 07:26:23;;;;;;;28.00;15.77;;;;;;;;;;5076280;28;20284;-63
2022/02/03 07:28:50;;;;;;;27.92;14.80;;;;;;;;;;5076799;28;20194;-64
2022/02/03 07:31:17;;;;;;;22.08;12.63;;;;;;;;;;5076221;28;20218;-63
2022/02/03 07:33:46;;;;;;;18.02;13.18;;;;;;;;;;5075859;28;20197;-63
2022/02/03 07:36:13;;;;;;;14.60;9.38;;;;;;;;;;5076313;28;20284;-63
2022/02/03 07:38:40;;;;;;;17.33;11.15;;;;;;;;;;5075742;28;20266;-64
2022/02/03 07:41:08;;;;;;;17.15;11.02;;;;;;;;;;5076019;28;20233;-64
2022/02/03 07:43:35;;;;;;;16.50;10.20;;;;;;;;;;5075623;28;20236;-64
2022/02/03 07:46:02;;;;;;;17.42;11.52;;;;;;;;;;5076315;28;20197;-63
2022/02/03 07:48:30;;;;;;;14.88;9.77;;;;;;;;;;5076348;28;20254;-64
2022/02/03 07:50:58;;;;;;;8.70;7.63;;;;;;;;;;5075449;28;20220;-64
2022/02/03 07:53:25;;;;;;;10.15;8.32;;;;;;;;;;5076610;28;20250;-65
2022/02/03 07:55:53;;;;;;;13.38;8.38;;;;;;;;;;5076142;28;20280;-64
2022/02/03 07:58:21;;;;;;;12.95;8.90;;;;;;;;;;5075681;28;20200;-64
2022/02/03 08:00:48;;;;;;;10.20;7.07;;;;;;;;;;5075658;28;20203;-64
2022/02/03 08:03:15;;;;;;;11.63;8.35;;;;;;;;;;5075200;28;20221;-64
2022/02/03 08:05:46;;;;;;;17.00;9.68;;;;;;;;;;5075240;28;20279;-63
2022/02/03 08:08:20;;;;;;;13.80;8.55;;;;;;;;;;5075641;28;20188;-63
2022/02/03 08:10:50;;;;;;;20.85;10.40;;;;;;;;;;5075417;28;20236;-64
2022/02/03 08:13:22;;;;;;;15.15;9.05;;;;;;;;;;5075325;28;20225;-63
2022/02/03 08:15:57;;;;;;;13.85;10.27;;;;;;;;;;5075403;28;20180;-63
2022/02/03 08:18:24;;;;;;;21.10;11.52;;;;;;;;;;5075081;28;20186;-64
2022/02/03 08:20:58;;;;;;;15.18;10.63;;;;;;;;;;5075415;28;20190;-64
2022/02/03 08:23:54;;;;;;;17.55;11.50;;;;;;;;;;5075318;28;20186;-64
2022/02/03 08:26:36;;;;;;;14.67;11.10;;;;;;;;;;5074993;28;20194;-64
2022/02/03 08:29:28;;;;;;;18.40;11.65;;;;;;;;;;5075506;28;20857;-64
2022/02/03 08:32:03;;;;;;;14.20;10.90;;;;;;;;;;5074842;28;20210;-63
2022/02/03 08:34:36;;;;;;;13.30;9.37;;;;;;;;;;5073826;28;20192;-64
2022/02/03 08:37:05;;;;;;;12.57;9.55;;;;;;;;;;5075775;28;20783;-63
2022/02/03 08:39:39;;;;;;;16.60;11.63;;;;;;;;;;5074897;28;20274;-64
2022/02/03 08:42:08;;;;;;;18.42;11.10;;;;;;;;;;5074631;28;20233;-64
2022/02/03 08:44:35;;;;;;;12.10;9.60;;;;;;;;;;5076103;28;20196;-64
2022/02/03 08:47:02;;;;;;;13.68;10.90;;;;;;;;;;5074495;28;20236;-63
2022/02/03 08:49:29;;;;;;;13.27;9.70;;;;;;;;;;5075269;28;20190;-64
2022/02/03 08:52:04;;;;;;;12.85;9.43;;;;;;;;;;5074629;28;20286;-63
2022/02/03 08:54:35;;;;;;;17.52;11.10;;;;;;;;;;5074273;28;20188;-64
2022/02/03 08:57:10;;;;;;;15.52;11.15;;;;;;;;;;5074313;28;20189;-64
2022/02/03 09:00:07;;;;;;;14.98;10.75;;;;;;;;;;5074242;28;20189;-64
2022/02/03 09:36:13;;;;;;;13.38;9.35;;;;;;;;;;5053683;28;20312;-64
2022/02/03 09:38:56;;;;;;;14.40;9.65;;;;;;;;;;5053924;28;20594;-64
2022/02/03 09:41:47;;;;;;;13.00;9.68;;;;;;;;;;5053397;28;20210;-64
2022/02/03 09:53:04;;;;;;;17.60;11.68;;;;;;;;;;5053460;28;20208;-64
2022/02/03 09:55:58;;;;;;;18.77;10.43;;;;;;;;;;5053804;28;20187;-64
2022/02/03 09:58:28;;;;;;;15.25;11.43;;;;;;;;;;5053908;28;20586;-64
2022/02/03 10:01:06;;;;;;;12.52;10.73;;;;;;;;;;5053554;28;20281;-64
2022/02/03 10:03:39;;;;;;;18.38;13.02;;;;;;;;;;5053244;28;20656;-64
2022/02/03 10:06:14;;;;;;;17.30;13.25;;;;;;;;;;5054002;28;20594;-64
2022/02/03 10:08:49;;;;;;;19.85;12.75;;;;;;;;;;5053465;28;20187;-63
2022/02/03 10:11:17;;;;;;;21.30;13.00;;;;;;;;;;5053320;28;20250;-64
2022/02/03 10:13:46;;;;;;;16.35;13.07;;;;;;;;;;5054165;28;20633;-64
2022/02/03 10:16:15;;;;;;;19.45;14.20;;;;;;;;;;5053828;28;20195;-63
2022/02/03 10:18:44;;;;;;;18.10;13.30;;;;;;;;;;5053331;28;20194;-64
2022/02/03 10:21:14;;;;;;;18.73;13.80;;;;;;;;;;5053781;28;20727;-64
2022/02/03 10:23:55;;;;;;;17.42;13.27;;;;;;;;;;5054127;28;20465;-64
2022/02/03 10:26:23;;;;;;;23.03;16.50;;;;;;;;;;5053308;28;20205;-63
2022/02/03 10:28:56;;;;;;;20.05;13.57;;;;;;;;;;5052935;28;20953;-63
2022/02/03 10:31:25;;;;;;;23.88;13.90;;;;;;;;;;5053362;28;20194;-63
2022/02/03 10:34:01;;;;;;;20.45;14.95;;;;;;;;;;5053124;28;20267;-63
2022/02/03 10:36:44;;;;;;;29.50;16.70;;;;;;;;;;5053524;28;20228;-64
2022/02/03 10:42:37;;;;;;;25.05;16.05;;;;;;;;;;5050567;28;20206;-64
2022/02/03 10:51:10;;;;;;;18.48;13.77;;;;;;;;;;5173373;27;20504;-64
2022/02/03 10:57:04;;;;;;;15.77;11.80;;;;;;;;;;5088790;28;20212;-64
2022/02/03 11:00:03;;;;;;;16.47;12.37;;;;;;;;;;5149402;27;20459;-63
2022/02/03 11:08:10;;;;;;;17.80;13.43;;;;;;;;;;5134175;27;20851;-63
2022/02/03 11:10:41;;;;;;;21.63;12.70;;;;;;;;;;5152804;27;20806;-63
2022/02/03 11:13:10;;;;;;;13.37;10.80;;;;;;;;;;5152558;27;20766;-63
2022/02/03 11:15:37;;;;;;;19.03;13.63;;;;;;;;;;5152177;27;20437;-63
2022/02/03 11:18:06;;;;;;;19.25;12.93;;;;;;;;;;5152148;27;20544;-63
2022/02/03 11:20:37;;;;;;;11.25;8.93;;;;;;;;;;5152683;27;20597;-63
2022/02/03 11:23:22;;;;;;;14.40;11.50;;;;;;;;;;5151737;27;20747;-63
2022/02/03 11:26:05;;;;;;;14.10;11.40;;;;;;;;;;5151675;27;20457;-63
2022/02/03 11:32:05;;;;;;;17.80;14.73;;;;;;;;;;5151634;27;20187;-63
2022/02/03 11:34:55;;;;;;;16.63;14.00;;;;;;;;;;5152260;27;20235;-63
2022/02/03 11:37:51;;;;;;;18.20;13.82;;;;;;;;;;5152076;27;20562;-63
2022/02/03 11:43:52;;;;;;;22.70;15.35;;;;;;;;;;5151905;27;20179;-63
2022/02/03 12:20:04;;;;;;;19.37;13.30;;;;;;;;;;5135938;27;20553;-63
2022/02/03 12:22:43;;;;;;;16.00;12.50;;;;;;;;;;5136681;27;20436;-63
2022/02/03 12:25:24;;;;;;;17.13;13.25;;;;;;;;;;5137563;27;20439;-64
2022/02/03 12:28:04;;;;;;;18.35;10.77;;;;;;;;;;5136444;27;20183;-62
2022/02/03 12:30:40;;;;;;;14.73;11.37;;;;;;;;;;5136941;27;20277;-63
2022/02/03 12:36:59;;;;;;;11.48;9.30;;;;;;;;;;5136521;27;20508;-64
2022/02/03 12:38:55;;;;;;;12.37;9.10;;;;;;;;;;5136636;27;20394;-64
2022/02/03 12:41:35;;;;;;;13.07;9.93;;;;;;;;;;5136402;27;20469;-63
2022/02/03 12:44:05;;;;;;;14.48;9.80;;;;;;;;;;5136982;27;20205;-63
2022/02/03 12:46:34;;;;;;;12.37;10.57;;;;;;;;;;5136592;27;20200;-63
2022/02/03 12:49:02;;;;;;;9.48;8.43;;;;;;;;;;5136314;27;20537;-63
2022/02/03 12:51:30;;;;;;;16.80;9.55;;;;;;;;;;5136501;27;20203;-64
2022/02/03 12:53:57;;;;;;;10.60;9.30;;;;;;;;;;5136396;27;20580;-64
2022/02/03 12:56:25;;;;;;;12.87;10.27;;;;;;;;;;5136469;27;21005;-65
2022/02/03 12:58:58;;;;;;;13.13;10.03;;;;;;;;;;5136158;27;20861;-71
2022/02/03 13:01:31;;;;;;;10.80;9.37;;;;;;;;;;5136412;27;20435;-65
2022/02/03 13:04:07;;;;;;;11.32;9.23;;;;;;;;;;5136803;27;20421;-64
2022/02/03 13:06:34;;;;;;;16.30;8.90;;;;;;;;;;5136819;27;20184;-64
2022/02/03 13:09:04;;;;;;;11.10;8.85;;;;;;;;;;5130732;27;20508;-64
2022/02/03 13:11:38;;;;;;;13.40;8.60;;;;;;;;;;5115245;28;20203;-65
2022/02/03 13:14:14;;;;;;;10.13;7.73;;;;;;;;;;5114545;28;20431;-64
2022/02/03 13:16:49;;;;;;;10.02;7.35;;;;;;;;;;5115190;28;20438;-64
2022/02/03 13:19:23;;;;;;;9.60;8.57;;;;;;;;;;5115259;28;20218;-64
2022/02/03 13:22:01;;;;;;;11.80;8.53;;;;;;;;;;5115899;28;20465;-64
2022/02/03 13:27:17;;;;;;;12.48;7.07;;;;;;;;;;5115297;28;20512;-65
2022/02/03 13:29:56;;;;;;;11.43;7.40;;;;;;;;;;5114977;28;20299;-64
2022/02/03 13:32:28;;;;;;;8.43;7.03;;;;;;;;;;5115385;28;20189;-63
2022/02/03 13:35:02;;;;;;;9.03;8.00;;;;;;;;;;5114680;28;20423;-64
2022/02/03 13:37:35;;;;;;;13.02;7.82;;;;;;;;;;5115017;28;20434;-63
2022/02/03 13:40:04;;;;;;;8.23;6.97;;;;;;;;;;5114800;28;20208;-65
2022/02/03 13:42:32;;;;;;;11.50;7.43;;;;;;;;;;5114360;28;20484;-63
2022/02/03 13:45:02;;;;;;;8.00;7.20;;;;;;;;;;5114629;28;20441;-64
2022/02/03 13:47:35;;;;;;;13.00;9.27;;;;;;;;;;5114447;28;20196;-64
2022/02/03 13:50:05;;;;;;;12.43;8.98;;;;;;;;;;5114740;28;20577;-63
2022/02/03 13:52:38;;;;;;;14.37;9.73;;;;;;;;;;5114841;28;20193;-63
2022/02/03 14:15:11;;;;;;;13.43;9.40;;;;;;;;;;5114168;28;20543;-64
2022/02/03 14:18:14;;;;;;;12.10;10.07;;;;;;;;;;5114000;28;20188;-63
2022/02/03 14:20:47;;;;;;;10.82;9.23;;;;;;;;;;5113765;28;20444;-64
2022/02/03 14:28:51;;;;;;;11.77;9.90;;;;;;;;;;5113966;28;20214;-64
2022/02/03 14:31:18;;;;;;;14.63;10.05;;;;;;;;;;5114694;28;20570;-63
2022/02/03 14:33:46;;;;;;;10.95;9.68;;;;;;;;;;5113624;28;20232;-64
2022/02/03 14:36:16;;;;;;;10.20;9.00;;;;;;;;;;5113599;28;20650;-63
2022/02/03 14:38:52;;;;;;;10.88;9.70;;;;;;;;;;5114362;28;20514;-63
2022/02/03 14:41:25;;;;;;;10.40;9.27;;;;;;;;;;5113562;28;20189;-64
2022/02/03 14:43:53;;;;;;;13.40;9.80;;;;;;;;;;5113602;28;20440;-63
2022/02/03 14:46:21;;;;;;;11.13;10.10;;;;;;;;;;5114400;28;20722;-63
2022/02/03 14:48:49;;;;;;;12.47;10.10;;;;;;;;;;5113260;28;20250;-64
2022/02/03 14:51:21;;;;;;;12.43;8.88;;;;;;;;;;5114150;28;20895;-63
2022/02/03 14:53:55;;;;;;;11.40;9.00;;;;;;;;;;5113641;28;20233;-63
2022/02/03 14:59:07;;;;;;;13.38;9.45;;;;;;;;;;5113674;28;20402;-65
2022/02/03 15:01:35;;;;;;;10.73;8.90;;;;;;;;;;5113827;28;20287;-64
2022/02/03 15:04:04;;;;;;;12.25;8.55;;;;;;;;;;5113789;28;20456;-64
2022/02/03 15:06:37;;;;;;;10.65;9.45;;;;;;;;;;5113414;28;20730;-65
2022/02/03 15:09:31;;;;;;;10.20;9.30;;;;;;;;;;5113281;28;20237;-64
2022/02/03 15:12:04;;;;;;;11.77;10.23;;;;;;;;;;5113356;28;20534;-64
2022/02/03 15:14:32;;;;;;;16.50;9.80;;;;;;;;;;5113868;28;20434;-64
2022/02/03 15:16:59;;;;;;;13.13;10.68;;;;;;;;;;5113658;28;20438;-64
2022/02/03 15:19:26;;;;;;;10.17;8.70;;;;;;;;;;5113628;28;20196;-64
2022/02/03 15:21:54;;;;;;;11.52;10.43;;;;;;;;;;5113262;28;20931;-64
2022/02/03 15:24:22;;;;;;;12.23;10.23;;;;;;;;;;5113294;28;20196;-65
2022/02/03 15:26:50;;;;;;;12.23;11.00;;;;;;;;;;5113903;28;20258;-64
2022/02/03 15:29:18;;;;;;;18.50;11.93;;;;;;;;;;5113428;28;20457;-64
2022/02/03 15:31:45;;;;;;;12.83;11.43;;;;;;;;;;5113775;28;20485;-66
2022/02/03 15:34:18;;;;;;;12.93;11.57;;;;;;;;;;5113465;28;20478;-65
2022/02/03 15:36:49;;;;;;;13.60;12.20;;;;;;;;;;5115927;28;20185;-64
2022/02/03 15:39:24;;;;;;;14.60;12.68;;;;;;;;;;5116881;28;20272;-64
2022/02/03 15:41:59;;;;;;;19.55;11.57;;;;;;;;;;5116976;28;20189;-64
2022/02/03 15:44:26;;;;;;;18.50;12.70;;;;;;;;;;5116950;28;20231;-63
2022/02/03 15:47:02;;;;;;;17.77;12.47;;;;;;;;;;5117376;28;20538;-64
2022/02/03 15:50:00;;;;;;;16.40;12.75;;;;;;;;;;5116653;28;20498;-64
2022/02/03 16:04:05;;;;;;;16.40;14.50;;;;;;;;;;5054046;28;20803;-64
2022/02/03 16:16:06;;;;;;;17.00;13.65;;;;;;;;;;5116628;28;20183;-65
2022/02/03 16:18:04;;;;;;;17.70;11.60;;;;;;;;;;5116387;28;20203;-64
2022/02/03 16:20:37;;;;;;;15.00;13.50;;;;;;;;;;5116189;28;20498;-64
2022/02/03 16:23:18;;;;;;;16.85;14.15;;;;;;;;;;5117061;28;20435;-64
2022/02/03 16:51:00;;;;;;;17.08;13.73;;;;;;;;;;5095556;28;20211;-64
2022/02/03 16:53:27;;;;;;;18.50;12.90;;;;;;;;;;5095301;28;20665;-64
2022/02/03 16:55:56;;;;;;;23.02;15.60;;;;;;;;;;5095952;28;20482;-65
2022/02/03 16:58:25;;;;;;;22.70;15.95;;;;;;;;;;5095400;28;20279;-64
2022/02/03 17:00:52;;;;;;;14.57;12.07;;;;;;;;;;5095406;28;20247;-64
2022/02/03 17:03:21;;;;;;;14.15;12.77;;;;;;;;;;5095004;28;20232;-64
2022/02/03 17:05:49;;;;;;;20.65;14.95;;;;;;;;;;5095291;28;20201;-65
2022/02/03 17:08:17;;;;;;;17.40;15.00;;;;;;;;;;5095050;28;20670;-64
2022/02/03 17:10:44;;;;;;;24.33;16.67;;;;;;;;;;5095051;28;20479;-65
2022/02/03 17:13:11;;;;;;;21.73;16.70;;;;;;;;;;5095250;28;20286;-64
2022/02/03 17:15:39;;;;;;;21.35;18.23;;;;;;;;;;5094862;28;20645;-65
2022/02/03 17:18:06;;;;;;;21.38;18.33;;;;;;;;;;5094916;28;20243;-65
2022/02/03 17:20:38;;;;;;;26.77;19.50;;;;;;;;;;5095590;28;20291;-66
2022/02/03 17:23:07;;;;;;;32.15;19.98;;;;;;;;;;5095627;28;20182;-65
2022/02/03 17:25:44;;;;;;;24.02;18.42;;;;;;;;;;5094865;28;20227;-64
2022/02/03 17:28:17;;;;;;;28.52;19.65;;;;;;;;;;5095393;28;20250;-65
2022/02/03 17:30:50;;;;;;;34.90;23.27;;;;;;;;;;5095146;28;20304;-64
2022/02/03 18:03:01;;;;;;;24.42;20.73;;;;;;;;;;5115343;28;20546;-64
2022/02/03 18:07:17;;;;;;;31.27;22.02;;;;;;;;;;5114834;28;20182;-64
2022/02/03 18:09:56;;;;;;;32.33;21.20;;;;;;;;;;5114115;28;20199;-65
2022/02/03 18:35:25;;;;;;;27.13;19.30;;;;;;;;;;5114203;28;20201;-65
2022/02/03 18:51:38;;;;;;;35.28;22.15;;;;;;;;;;5134426;28;20210;-64
2022/02/03 18:54:16;;;;;;;32.58;21.90;;;;;;;;;;5134876;28;20570;-66
2022/02/03 18:56:50;;;;;;;31.02;21.35;;;;;;;;;;5134208;28;20681;-65
2022/02/03 18:59:37;;;;;;;31.27;21.63;;;;;;;;;;5134577;28;20547;-65
2022/02/03 19:02:33;;;;;;;38.38;25.30;;;;;;;;;;5134272;28;20186;-65
2022/02/03 19:20:48;;;;;;;31.63;20.77;;;;;;;;;;5117436;28;20201;-65
2022/02/03 19:25:05;;;;;;;28.88;22.40;;;;;;;;;;5115881;28;20542;-64
2022/02/03 19:27:51;;;;;;;31.95;20.63;;;;;;;;;;5117088;28;20226;-65
2022/02/03 20:06:33;;;;;;;30.88;20.95;;;;;;;;;;5155614;27;21037;-66
2022/02/03 20:09:09;;;;;;;31.40;23.88;;;;;;;;;;5133813;28;20186;-66
2022/02/03 20:11:37;;;;;;;27.67;20.63;;;;;;;;;;5132500;28;20191;-66
2022/02/03 20:14:10;;;;;;;36.47;22.70;;;;;;;;;;5132381;28;20195;-63
2022/02/03 20:16:38;;;;;;;26.08;21.33;;;;;;;;;;5132669;28;20184;-63
2022/02/03 20:19:05;;;;;;;32.55;24.70;;;;;;;;;;5135220;28;20244;-64
2022/02/03 20:21:35;;;;;;;30.33;20.70;;;;;;;;;;5136874;28;20254;-62
2022/02/03 20:24:04;;;;;;;31.25;23.60;;;;;;;;;;5133755;28;20222;-64
2022/02/03 20:26:31;;;;;;;31.98;23.33;;;;;;;;;;5131424;28;20226;-63
2022/02/03 20:28:59;;;;;;;29.15;20.95;;;;;;;;;;5131851;28;20195;-63
2022/02/03 20:31:26;;;;;;;34.30;23.25;;;;;;;;;;5133191;28;20195;-63
2022/02/03 20:33:53;;;;;;;36.53;21.67;;;;;;;;;;5132758;28;20237;-63
2022/02/03 20:36:21;;;;;;;31.00;23.58;;;;;;;;;;5133263;28;20200;-63
2022/02/03 20:38:51;;;;;;;29.42;23.55;;;;;;;;;;5133764;28;20215;-64
2022/02/03 20:41:18;;;;;;;30.27;22.10;;;;;;;;;;5133703;28;20184;-63
2022/02/03 20:43:46;;;;;;;29.08;21.23;;;;;;;;;;5133864;28;20196;-62
2022/02/03 20:46:13;;;;;;;31.80;20.67;;;;;;;;;;5133333;28;20218;-63
2022/02/03 20:48:45;;;;;;;30.63;22.30;;;;;;;;;;5131525;28;20195;-63
2022/02/03 20:51:13;;;;;;;27.33;20.98;;;;;;;;;;5131966;28;20203;-63
2022/02/03 20:53:41;;;;;;;29.08;22.38;;;;;;;;;;5131352;28;20283;-63
2022/02/03 20:56:10;;;;;;;30.00;21.83;;;;;;;;;;5131013;28;20260;-63
2022/02/03 20:58:38;;;;;;;29.15;22.58;;;;;;;;;;5131210;28;20191;-62
2022/02/03 21:01:13;;;;;;;32.58;19.98;;;;;;;;;;5132098;28;20202;-63
2022/02/03 21:03:43;;;;;;;36.67;20.33;;;;;;;;;;5133724;28;20193;-63
2022/02/03 21:06:12;;;;;;;26.40;19.35;;;;;;;;;;5131018;28;20237;-63
2022/02/03 21:08:41;;;;;;;27.38;20.70;;;;;;;;;;5131181;28;20222;-63
2022/02/03 21:11:10;;;;;;;29.88;22.23;;;;;;;;;;5131097;28;20545;-63
2022/02/03 21:13:37;;;;;;;31.63;20.65;;;;;;;;;;5131086;28;20302;-63
2022/02/03 21:16:06;;;;;;;27.85;21.80;;;;;;;;;;5126314;28;20235;-62
2022/02/03 21:18:37;;;;;;;32.00;21.15;;;;;;;;;;5116871;28;20200;-63
2022/02/03 21:21:04;;;;;;;28.00;21.35;;;;;;;;;;5116815;28;20184;-63
2022/02/03 21:23:31;;;;;;;28.08;19.77;;;;;;;;;;5117305;28;20560;-62
2022/02/03 21:26:01;;;;;;;25.75;19.98;;;;;;;;;;5116793;28;20218;-63
2022/02/03 21:28:32;;;;;;;23.65;18.05;;;;;;;;;;5116496;28;20234;-62
2022/02/03 21:31:00;;;;;;;22.02;17.80;;;;;;;;;;5116828;28;20195;-62
2022/02/03 21:33:31;;;;;;;22.63;15.38;;;;;;;;;;5116606;28;20257;-64
2022/02/03 21:36:08;;;;;;;24.95;17.90;;;;;;;;;;5118382;28;20705;-62
2022/02/03 21:38:35;;;;;;;26.05;17.92;;;;;;;;;;5117598;28;20207;-62
2022/02/03 21:41:02;;;;;;;23.65;17.35;;;;;;;;;;5117498;28;20203;-62
2022/02/03 21:43:31;;;;;;;21.52;17.02;;;;;;;;;;5117315;28;20607;-63
2022/02/03 21:45:58;;;;;;;24.13;16.55;;;;;;;;;;5116759;28;20299;-62
2022/02/03 21:48:25;;;;;;;28.45;19.35;;;;;;;;;;5116185;28;20226;-62
2022/02/03 21:50:54;;;;;;;25.30;20.05;;;;;;;;;;5116258;28;20202;-63
2022/02/03 21:53:25;;;;;;;26.70;19.88;;;;;;;;;;5116427;28;20202;-63
2022/02/03 21:55:54;;;;;;;22.95;18.52;;;;;;;;;;5116785;28;20608;-64
2022/02/03 21:58:25;;;;;;;27.15;20.10;;;;;;;;;;5116541;28;20204;-63
2022/02/03 22:00:54;;;;;;;30.08;20.10;;;;;;;;;;5116655;28;20196;-63
2022/02/03 22:03:24;;;;;;;24.02;19.17;;;;;;;;;;5117364;28;20234;-63
2022/02/03 22:05:51;;;;;;;26.35;20.35;;;;;;;;;;5115915;28;20251;-63
2022/02/03 22:08:19;;;;;;;31.42;20.30;;;;;;;;;;5116460;28;20189;-63
2022/02/03 22:10:46;;;;;;;28.75;21.02;;;;;;;;;;5116109;28;20195;-63
2022/02/03 22:13:14;;;;;;;25.20;18.50;;;;;;;;;;5115400;28;20598;-63
2022/02/03 22:15:42;;;;;;;28.33;20.60;;;;;;;;;;5115626;28;20207;-63
2022/02/03 22:18:14;;;;;;;29.58;19.60;;;;;;;;;;5115930;28;20235;-64
2022/02/03 22:20:50;;;;;;;27.15;18.70;;;;;;;;;;5116112;28;20217;-62
2022/02/03 22:23:28;;;;;;;26.27;20.20;;;;;;;;;;5116152;28;20184;-62
2022/02/03 22:26:34;;;;;;;26.52;18.95;;;;;;;;;;5115649;28;20253;-63
2022/02/03 22:48:25;;;;;;;29.52;21.08;;;;;;;;;;5116961;28;20207;-63
2022/02/03 22:50:54;;;;;;;30.67;21.00;;;;;;;;;;5118208;28;20196;-63
2022/02/03 22:53:22;;;;;;;24.88;20.17;;;;;;;;;;5118833;28;20283;-63
2022/02/03 22:55:49;;;;;;;28.65;19.85;;;;;;;;;;5118892;28;20212;-63
2022/02/03 22:58:42;;;;;;;31.63;21.52;;;;;;;;;;5118968;28;20238;-64
2022/02/03 23:01:10;;;;;;;34.40;21.58;;;;;;;;;;5118045;28;20185;-63
2022/02/03 23:03:37;;;;;;;27.92;20.08;;;;;;;;;;5117922;28;20228;-62
2022/02/03 23:06:06;;;;;;;32.75;22.50;;;;;;;;;;5099969;28;20257;-63
2022/02/03 23:08:40;;;;;;;31.20;20.95;;;;;;;;;;5097178;28;20197;-62
2022/02/03 23:11:17;;;;;;;30.27;21.73;;;;;;;;;;5094666;28;20191;-62
2022/02/03 23:14:02;;;;;;;31.00;21.67;;;;;;;;;;5096228;28;20645;-62
2022/02/03 23:16:43;;;;;;;31.20;20.90;;;;;;;;;;5098506;28;20189;-63
2022/02/03 23:19:38;;;;;;;34.90;21.20;;;;;;;;;;5098029;28;20275;-63
2022/02/03 23:22:13;;;;;;;31.80;22.58;;;;;;;;;;5094767;28;20183;-63
2022/02/03 23:24:41;;;;;;;33.25;22.50;;;;;;;;;;5096341;28;20184;-63
2022/02/03 23:27:49;;;;;;;38.70;21.67;;;;;;;;;;5094912;28;20220;-62
2022/02/03 23:30:19;;;;;;;33.10;23.08;;;;;;;;;;5095136;28;20582;-63
2022/02/03 23:32:46;;;;;;;38.25;23.58;;;;;;;;;;5095545;28;20279;-63
2022/02/03 23:35:17;;;;;;;36.60;22.88;;;;;;;;;;5095065;28;20240;-63
2022/02/03 23:37:51;;;;;;;38.80;24.77;;;;;;;;;;5095008;28;20638;-65
2022/02/03 23:40:24;;;;;;;34.30;23.48;;;;;;;;;;5094626;28;20184;-63
